Cairns, Australia
Current Conditions -  °F | °C
As of 8:00 AM on Thursday 29 Jan 2015 (Local Time) from YBCS Reporting Station
Clear Clear  
Wind Chill: 86°   Ceiling: Unl
Heat Index: 86°   Visibility: 6mi
Dew Point: 61°   Wind: 5mph
Humidity: 43%   Direction: 230°SW
Pressure: 29.59"   Gusts: NA
Location:  16.93°S, 145.78°E
Report Text: YBCS 282200Z 23004KT CAVOK 30/16 Q1002
Loading
Personal Weather Stations






























Interactive Weather Map New forecast layout! Learn more

10-Day Weather Forecast

Advertisements
Track Severe Weather on mobile